sensor_id;sensor_type;location;lat;lon;timestamp;P1;durP1;ratioP1;P2;durP2;ratioP2
11076;SDS011;5591;42.626;23.380;2022-10-17T00:00:57;7.70;;;5.90;;
11076;SDS011;5591;42.626;23.380;2022-10-17T00:03:25;6.40;;;5.80;;
11076;SDS011;5591;42.626;23.380;2022-10-17T00:05:52;6.87;;;5.80;;
11076;SDS011;5591;42.626;23.380;2022-10-17T00:08:19;7.97;;;5.50;;
11076;SDS011;5591;42.626;23.380;2022-10-17T00:10:53;10.00;;;5.70;;
11076;SDS011;5591;42.626;23.380;2022-10-17T00:13:21;7.53;;;6.03;;
11076;SDS011;5591;42.626;23.380;2022-10-17T00:15:48;7.67;;;6.03;;
11076;SDS011;5591;42.626;23.380;2022-10-17T00:18:15;6.80;;;5.50;;
11076;SDS011;5591;42.626;23.380;2022-10-17T00:20:43;6.10;;;5.33;;
11076;SDS011;5591;42.626;23.380;2022-10-17T00:23:10;8.57;;;5.87;;
11076;SDS011;5591;42.626;23.380;2022-10-17T00:25:37;10.10;;;5.63;;
11076;SDS011;5591;42.626;23.380;2022-10-17T00:28:04;6.30;;;5.17;;
11076;SDS011;5591;42.626;23.380;2022-10-17T00:30:31;6.60;;;5.20;;
11076;SDS011;5591;42.626;23.380;2022-10-17T00:32:58;8.30;;;5.60;;
11076;SDS011;5591;42.626;23.380;2022-10-17T00:35:25;6.97;;;5.37;;
11076;SDS011;5591;42.626;23.380;2022-10-17T00:37:53;6.70;;;5.30;;
11076;SDS011;5591;42.626;23.380;2022-10-17T00:40:20;6.83;;;5.23;;
11076;SDS011;5591;42.626;23.380;2022-10-17T00:42:47;6.40;;;5.77;;
11076;SDS011;5591;42.626;23.380;2022-10-17T00:45:17;6.30;;;5.67;;
11076;SDS011;5591;42.626;23.380;2022-10-17T00:47:47;6.47;;;5.70;;
11076;SDS011;5591;42.626;23.380;2022-10-17T00:50:17;9.70;;;6.07;;
11076;SDS011;5591;42.626;23.380;2022-10-17T00:52:44;6.37;;;5.70;;
11076;SDS011;5591;42.626;23.380;2022-10-17T00:55:16;9.87;;;5.70;;
11076;SDS011;5591;42.626;23.380;2022-10-17T00:57:45;6.43;;;5.73;;
11076;SDS011;5591;42.626;23.380;2022-10-17T01:00:13;5.93;;;5.33;;
11076;SDS011;5591;42.626;23.380;2022-10-17T01:02:41;7.03;;;5.43;;
11076;SDS011;5591;42.626;23.380;2022-10-17T01:05:08;6.70;;;6.00;;
11076;SDS011;5591;42.626;23.380;2022-10-17T01:07:37;8.20;;;5.90;;
11076;SDS011;5591;42.626;23.380;2022-10-17T01:10:05;7.00;;;5.90;;
11076;SDS011;5591;42.626;23.380;2022-10-17T01:12:38;7.07;;;6.13;;
11076;SDS011;5591;42.626;23.380;2022-10-17T01:15:12;7.60;;;5.90;;
11076;SDS011;5591;42.626;23.380;2022-10-17T01:17:51;7.80;;;5.90;;
11076;SDS011;5591;42.626;23.380;2022-10-17T01:20:38;6.60;;;5.87;;
11076;SDS011;5591;42.626;23.380;2022-10-17T01:23:26;7.97;;;6.00;;
11076;SDS011;5591;42.626;23.380;2022-10-17T01:26:04;7.00;;;6.07;;
11076;SDS011;5591;42.626;23.380;2022-10-17T01:28:50;9.00;;;6.07;;
11076;SDS011;5591;42.626;23.380;2022-10-17T01:31:39;7.13;;;5.93;;
11076;SDS011;5591;42.626;23.380;2022-10-17T01:34:12;8.57;;;6.03;;
11076;SDS011;5591;42.626;23.380;2022-10-17T01:36:46;7.80;;;5.80;;
11076;SDS011;5591;42.626;23.380;2022-10-17T01:39:19;7.27;;;6.17;;
11076;SDS011;5591;42.626;23.380;2022-10-17T01:41:55;6.50;;;5.87;;
11076;SDS011;5591;42.626;23.380;2022-10-17T01:44:28;9.00;;;6.43;;
11076;SDS011;5591;42.626;23.380;2022-10-17T01:47:05;8.43;;;5.90;;
11076;SDS011;5591;42.626;23.380;2022-10-17T01:49:36;6.23;;;5.63;;
11076;SDS011;5591;42.626;23.380;2022-10-17T01:52:07;6.70;;;6.00;;
11076;SDS011;5591;42.626;23.380;2022-10-17T01:54:37;6.93;;;6.17;;
11076;SDS011;5591;42.626;23.380;2022-10-17T01:57:09;9.13;;;5.53;;
11076;SDS011;5591;42.626;23.380;2022-10-17T01:59:40;7.47;;;6.07;;
11076;SDS011;5591;42.626;23.380;2022-10-17T02:02:11;9.27;;;6.30;;
11076;SDS011;5591;42.626;23.380;2022-10-17T02:04:40;8.83;;;5.97;;
11076;SDS011;5591;42.626;23.380;2022-10-17T02:07:08;7.80;;;5.80;;
11076;SDS011;5591;42.626;23.380;2022-10-17T02:09:35;8.63;;;6.43;;
11076;SDS011;5591;42.626;23.380;2022-10-17T02:12:08;6.40;;;5.80;;
11076;SDS011;5591;42.626;23.380;2022-10-17T02:14:55;9.60;;;6.20;;
11076;SDS011;5591;42.626;23.380;2022-10-17T02:17:37;7.33;;;6.37;;
11076;SDS011;5591;42.626;23.380;2022-10-17T02:20:13;6.77;;;5.90;;
11076;SDS011;5591;42.626;23.380;2022-10-17T02:22:46;8.50;;;6.03;;
11076;SDS011;5591;42.626;23.380;2022-10-17T02:25:20;7.23;;;6.27;;
11076;SDS011;5591;42.626;23.380;2022-10-17T02:27:55;7.93;;;6.03;;
11076;SDS011;5591;42.626;23.380;2022-10-17T02:30:31;6.70;;;6.03;;
11076;SDS011;5591;42.626;23.380;2022-10-17T02:33:04;6.63;;;5.73;;
11076;SDS011;5591;42.626;23.380;2022-10-17T02:35:35;7.90;;;5.93;;
11076;SDS011;5591;42.626;23.380;2022-10-17T02:38:05;8.53;;;6.00;;
11076;SDS011;5591;42.626;23.380;2022-10-17T02:40:36;7.93;;;6.10;;
11076;SDS011;5591;42.626;23.380;2022-10-17T02:43:04;7.03;;;6.03;;
11076;SDS011;5591;42.626;23.380;2022-10-17T02:45:32;6.97;;;6.27;;
11076;SDS011;5591;42.626;23.380;2022-10-17T02:48:03;7.30;;;6.47;;
11076;SDS011;5591;42.626;23.380;2022-10-17T02:50:37;7.63;;;6.37;;
11076;SDS011;5591;42.626;23.380;2022-10-17T02:53:10;10.63;;;6.93;;
11076;SDS011;5591;42.626;23.380;2022-10-17T02:55:42;11.07;;;6.50;;
11076;SDS011;5591;42.626;23.380;2022-10-17T02:58:17;8.03;;;6.67;;
11076;SDS011;5591;42.626;23.380;2022-10-17T03:00:46;14.17;;;8.67;;
11076;SDS011;5591;42.626;23.380;2022-10-17T03:03:19;8.00;;;7.20;;
11076;SDS011;5591;42.626;23.380;2022-10-17T03:05:48;8.40;;;7.07;;
11076;SDS011;5591;42.626;23.380;2022-10-17T03:08:14;9.57;;;7.67;;
11076;SDS011;5591;42.626;23.380;2022-10-17T03:10:41;9.93;;;6.90;;
11076;SDS011;5591;42.626;23.380;2022-10-17T03:13:08;8.20;;;7.00;;
11076;SDS011;5591;42.626;23.380;2022-10-17T03:15:35;8.40;;;7.23;;
11076;SDS011;5591;42.626;23.380;2022-10-17T03:18:02;8.23;;;7.23;;
11076;SDS011;5591;42.626;23.380;2022-10-17T03:20:30;8.90;;;7.50;;
11076;SDS011;5591;42.626;23.380;2022-10-17T03:22:57;9.53;;;7.37;;
11076;SDS011;5591;42.626;23.380;2022-10-17T03:25:24;9.03;;;7.60;;
11076;SDS011;5591;42.626;23.380;2022-10-17T03:27:51;8.93;;;7.33;;
11076;SDS011;5591;42.626;23.380;2022-10-17T03:30:18;12.73;;;8.10;;
11076;SDS011;5591;42.626;23.380;2022-10-17T03:32:45;8.07;;;7.27;;
11076;SDS011;5591;42.626;23.380;2022-10-17T03:35:12;9.43;;;7.30;;
11076;SDS011;5591;42.626;23.380;2022-10-17T03:37:40;7.90;;;7.10;;
11076;SDS011;5591;42.626;23.380;2022-10-17T03:40:08;9.73;;;7.33;;
11076;SDS011;5591;42.626;23.380;2022-10-17T03:42:35;8.87;;;7.40;;
11076;SDS011;5591;42.626;23.380;2022-10-17T03:45:02;12.00;;;8.97;;
11076;SDS011;5591;42.626;23.380;2022-10-17T03:47:30;9.40;;;7.87;;
11076;SDS011;5591;42.626;23.380;2022-10-17T03:49:57;8.60;;;7.40;;
11076;SDS011;5591;42.626;23.380;2022-10-17T03:52:23;8.33;;;7.47;;
11076;SDS011;5591;42.626;23.380;2022-10-17T03:54:51;9.77;;;7.70;;
11076;SDS011;5591;42.626;23.380;2022-10-17T03:57:18;9.23;;;8.03;;
11076;SDS011;5591;42.626;23.380;2022-10-17T03:59:45;9.83;;;7.60;;
11076;SDS011;5591;42.626;23.380;2022-10-17T04:02:12;11.87;;;8.90;;
11076;SDS011;5591;42.626;23.380;2022-10-17T04:04:38;11.23;;;8.87;;
11076;SDS011;5591;42.626;23.380;2022-10-17T04:07:05;9.23;;;8.17;;
11076;SDS011;5591;42.626;23.380;2022-10-17T04:09:32;10.10;;;8.43;;
11076;SDS011;5591;42.626;23.380;2022-10-17T04:12:00;9.70;;;7.90;;
11076;SDS011;5591;42.626;23.380;2022-10-17T04:14:27;8.43;;;7.53;;
11076;SDS011;5591;42.626;23.380;2022-10-17T04:16:54;9.63;;;8.03;;
11076;SDS011;5591;42.626;23.380;2022-10-17T04:19:20;9.70;;;7.90;;
11076;SDS011;5591;42.626;23.380;2022-10-17T04:21:47;9.83;;;8.50;;
11076;SDS011;5591;42.626;23.380;2022-10-17T04:24:14;10.70;;;7.57;;
11076;SDS011;5591;42.626;23.380;2022-10-17T04:26:41;9.70;;;7.80;;
11076;SDS011;5591;42.626;23.380;2022-10-17T04:29:09;9.70;;;8.70;;
11076;SDS011;5591;42.626;23.380;2022-10-17T04:31:36;9.43;;;8.17;;
11076;SDS011;5591;42.626;23.380;2022-10-17T04:34:03;10.97;;;7.97;;
11076;SDS011;5591;42.626;23.380;2022-10-17T04:36:30;9.50;;;7.83;;
11076;SDS011;5591;42.626;23.380;2022-10-17T04:38:56;10.07;;;7.30;;
11076;SDS011;5591;42.626;23.380;2022-10-17T04:41:25;9.23;;;7.43;;
11076;SDS011;5591;42.626;23.380;2022-10-17T04:43:52;10.03;;;7.50;;
11076;SDS011;5591;42.626;23.380;2022-10-17T04:46:20;12.03;;;8.40;;
11076;SDS011;5591;42.626;23.380;2022-10-17T04:48:47;11.93;;;8.60;;
11076;SDS011;5591;42.626;23.380;2022-10-17T04:51:14;11.80;;;8.07;;
11076;SDS011;5591;42.626;23.380;2022-10-17T04:53:43;11.07;;;7.50;;
11076;SDS011;5591;42.626;23.380;2022-10-17T04:56:11;12.43;;;7.90;;
11076;SDS011;5591;42.626;23.380;2022-10-17T04:58:40;8.37;;;7.43;;
11076;SDS011;5591;42.626;23.380;2022-10-17T05:01:08;12.50;;;8.20;;
11076;SDS011;5591;42.626;23.380;2022-10-17T05:03:38;13.23;;;8.27;;
11076;SDS011;5591;42.626;23.380;2022-10-17T05:06:05;13.10;;;9.47;;
11076;SDS011;5591;42.626;23.380;2022-10-17T05:08:33;12.70;;;10.07;;
11076;SDS011;5591;42.626;23.380;2022-10-17T05:11:01;11.90;;;9.23;;
11076;SDS011;5591;42.626;23.380;2022-10-17T05:13:28;14.60;;;10.60;;
11076;SDS011;5591;42.626;23.380;2022-10-17T05:15:57;13.00;;;8.53;;
11076;SDS011;5591;42.626;23.380;2022-10-17T05:18:25;10.23;;;7.87;;
11076;SDS011;5591;42.626;23.380;2022-10-17T05:20:53;10.97;;;8.03;;
11076;SDS011;5591;42.626;23.380;2022-10-17T05:23:20;11.67;;;8.13;;
11076;SDS011;5591;42.626;23.380;2022-10-17T05:25:47;11.50;;;8.13;;
11076;SDS011;5591;42.626;23.380;2022-10-17T05:28:18;10.90;;;7.20;;
11076;SDS011;5591;42.626;23.380;2022-10-17T05:30:45;10.93;;;7.07;;
11076;SDS011;5591;42.626;23.380;2022-10-17T05:33:12;9.73;;;7.53;;
11076;SDS011;5591;42.626;23.380;2022-10-17T05:35:39;13.67;;;7.80;;
11076;SDS011;5591;42.626;23.380;2022-10-17T05:38:07;12.73;;;7.80;;
11076;SDS011;5591;42.626;23.380;2022-10-17T05:40:34;10.80;;;7.60;;
11076;SDS011;5591;42.626;23.380;2022-10-17T05:43:02;8.43;;;6.77;;
11076;SDS011;5591;42.626;23.380;2022-10-17T05:45:29;8.77;;;7.63;;
11076;SDS011;5591;42.626;23.380;2022-10-17T05:47:56;12.67;;;8.40;;
11076;SDS011;5591;42.626;23.380;2022-10-17T05:50:23;11.93;;;8.10;;
11076;SDS011;5591;42.626;23.380;2022-10-17T05:52:51;8.70;;;7.30;;
11076;SDS011;5591;42.626;23.380;2022-10-17T05:55:20;12.67;;;7.80;;
11076;SDS011;5591;42.626;23.380;2022-10-17T05:57:47;9.90;;;8.03;;
11076;SDS011;5591;42.626;23.380;2022-10-17T06:00:14;14.80;;;9.67;;
11076;SDS011;5591;42.626;23.380;2022-10-17T06:02:42;11.00;;;8.10;;
11076;SDS011;5591;42.626;23.380;2022-10-17T06:05:10;10.83;;;7.80;;
11076;SDS011;5591;42.626;23.380;2022-10-17T06:07:37;12.10;;;7.80;;
11076;SDS011;5591;42.626;23.380;2022-10-17T06:10:04;8.20;;;6.23;;
11076;SDS011;5591;42.626;23.380;2022-10-17T06:12:33;8.90;;;7.50;;
11076;SDS011;5591;42.626;23.380;2022-10-17T06:14:59;9.63;;;6.50;;
11076;SDS011;5591;42.626;23.380;2022-10-17T06:17:26;13.07;;;7.60;;
11076;SDS011;5591;42.626;23.380;2022-10-17T06:19:54;12.20;;;7.50;;
11076;SDS011;5591;42.626;23.380;2022-10-17T06:22:21;8.33;;;7.43;;
11076;SDS011;5591;42.626;23.380;2022-10-17T06:24:48;10.73;;;8.40;;
11076;SDS011;5591;42.626;23.380;2022-10-17T06:27:16;15.03;;;9.73;;
11076;SDS011;5591;42.626;23.380;2022-10-17T06:29:44;15.23;;;9.83;;
11076;SDS011;5591;42.626;23.380;2022-10-17T06:32:11;18.33;;;11.17;;
11076;SDS011;5591;42.626;23.380;2022-10-17T06:34:38;13.47;;;11.00;;
11076;SDS011;5591;42.626;23.380;2022-10-17T06:37:05;14.50;;;10.53;;
11076;SDS011;5591;42.626;23.380;2022-10-17T06:39:33;18.47;;;11.53;;
11076;SDS011;5591;42.626;23.380;2022-10-17T06:42:00;20.00;;;11.70;;
11076;SDS011;5591;42.626;23.380;2022-10-17T06:44:28;16.13;;;11.67;;
11076;SDS011;5591;42.626;23.380;2022-10-17T06:46:57;11.47;;;10.17;;
11076;SDS011;5591;42.626;23.380;2022-10-17T06:49:24;14.67;;;10.30;;
11076;SDS011;5591;42.626;23.380;2022-10-17T09:24:05;16.70;;;10.17;;
11076;SDS011;5591;42.626;23.380;2022-10-17T09:26:38;8.33;;;6.00;;
11076;SDS011;5591;42.626;23.380;2022-10-17T09:29:14;14.40;;;5.87;;
11076;SDS011;5591;42.626;23.380;2022-10-17T09:31:46;9.80;;;5.37;;
11076;SDS011;5591;42.626;23.380;2022-10-17T09:34:18;10.13;;;5.53;;
11076;SDS011;5591;42.626;23.380;2022-10-17T09:36:53;9.40;;;4.97;;
11076;SDS011;5591;42.626;23.380;2022-10-17T09:39:22;9.80;;;5.30;;
11076;SDS011;5591;42.626;23.380;2022-10-17T09:41:52;6.67;;;5.70;;
11076;SDS011;5591;42.626;23.380;2022-10-17T09:44:20;7.17;;;5.20;;
11076;SDS011;5591;42.626;23.380;2022-10-17T09:47:00;9.57;;;5.33;;
11076;SDS011;5591;42.626;23.380;2022-10-17T09:49:40;5.27;;;4.33;;
11076;SDS011;5591;42.626;23.380;2022-10-17T09:52:09;7.10;;;4.73;;
11076;SDS011;5591;42.626;23.380;2022-10-17T09:54:42;10.07;;;4.90;;
11076;SDS011;5591;42.626;23.380;2022-10-17T09:57:11;7.67;;;5.10;;
11076;SDS011;5591;42.626;23.380;2022-10-17T09:59:40;8.23;;;4.57;;
11076;SDS011;5591;42.626;23.380;2022-10-17T10:02:13;7.00;;;5.10;;
11076;SDS011;5591;42.626;23.380;2022-10-17T10:04:56;7.43;;;5.10;;
11076;SDS011;5591;42.626;23.380;2022-10-17T10:07:25;9.23;;;5.00;;
11076;SDS011;5591;42.626;23.380;2022-10-17T10:09:54;7.43;;;4.53;;
11076;SDS011;5591;42.626;23.380;2022-10-17T10:12:23;7.33;;;4.67;;
11076;SDS011;5591;42.626;23.380;2022-10-17T10:14:51;6.63;;;4.50;;
11076;SDS011;5591;42.626;23.380;2022-10-17T10:17:26;7.97;;;4.43;;
11076;SDS011;5591;42.626;23.380;2022-10-17T10:20:02;8.23;;;4.40;;
11076;SDS011;5591;42.626;23.380;2022-10-17T10:23:03;5.40;;;3.80;;
11076;SDS011;5591;42.626;23.380;2022-10-17T10:25:33;8.17;;;3.87;;
11076;SDS011;5591;42.626;23.380;2022-10-17T10:28:00;5.93;;;3.57;;
11076;SDS011;5591;42.626;23.380;2022-10-17T10:30:34;5.23;;;4.10;;
11076;SDS011;5591;42.626;23.380;2022-10-17T10:33:01;6.13;;;3.30;;
11076;SDS011;5591;42.626;23.380;2022-10-17T10:35:30;5.47;;;3.47;;
11076;SDS011;5591;42.626;23.380;2022-10-17T10:37:59;7.40;;;4.33;;
11076;SDS011;5591;42.626;23.380;2022-10-17T10:40:30;3.70;;;3.30;;
11076;SDS011;5591;42.626;23.380;2022-10-17T10:43:02;8.00;;;3.80;;
11076;SDS011;5591;42.626;23.380;2022-10-17T10:45:38;6.13;;;3.70;;
11076;SDS011;5591;42.626;23.380;2022-10-17T10:48:13;4.93;;;3.43;;
11076;SDS011;5591;42.626;23.380;2022-10-17T10:50:48;4.97;;;3.50;;
11076;SDS011;5591;42.626;23.380;2022-10-17T10:53:26;6.57;;;3.80;;
11076;SDS011;5591;42.626;23.380;2022-10-17T10:55:59;4.10;;;3.20;;
11076;SDS011;5591;42.626;23.380;2022-10-17T10:58:37;5.57;;;3.37;;
11076;SDS011;5591;42.626;23.380;2022-10-17T11:01:11;6.07;;;3.30;;
11076;SDS011;5591;42.626;23.380;2022-10-17T11:03:51;6.07;;;3.07;;
11076;SDS011;5591;42.626;23.380;2022-10-17T11:06:24;4.53;;;3.90;;
11076;SDS011;5591;42.626;23.380;2022-10-17T11:09:09;7.23;;;3.30;;
11076;SDS011;5591;42.626;23.380;2022-10-17T11:11:45;6.13;;;3.30;;
11076;SDS011;5591;42.626;23.380;2022-10-17T11:14:17;3.70;;;3.10;;
11076;SDS011;5591;42.626;23.380;2022-10-17T11:16:48;5.20;;;3.17;;
11076;SDS011;5591;42.626;23.380;2022-10-17T11:19:23;9.60;;;3.80;;
11076;SDS011;5591;42.626;23.380;2022-10-17T11:21:59;4.67;;;3.23;;
11076;SDS011;5591;42.626;23.380;2022-10-17T11:24:33;5.07;;;3.30;;
11076;SDS011;5591;42.626;23.380;2022-10-17T11:27:06;4.30;;;3.00;;
11076;SDS011;5591;42.626;23.380;2022-10-17T11:29:34;6.87;;;3.23;;
11076;SDS011;5591;42.626;23.380;2022-10-17T11:32:06;5.77;;;4.13;;
11076;SDS011;5591;42.626;23.380;2022-10-17T11:34:38;4.70;;;3.40;;
11076;SDS011;5591;42.626;23.380;2022-10-17T11:37:10;6.40;;;3.37;;
11076;SDS011;5591;42.626;23.380;2022-10-17T11:39:42;3.30;;;3.00;;
11076;SDS011;5591;42.626;23.380;2022-10-17T11:42:16;6.60;;;3.30;;
11076;SDS011;5591;42.626;23.380;2022-10-17T11:44:46;4.23;;;3.83;;
11076;SDS011;5591;42.626;23.380;2022-10-17T11:47:22;7.17;;;6.17;;
11076;SDS011;5591;42.626;23.380;2022-10-17T11:49:58;8.37;;;4.43;;
11076;SDS011;5591;42.626;23.380;2022-10-17T11:52:34;4.40;;;2.70;;
11076;SDS011;5591;42.626;23.380;2022-10-17T11:55:08;5.33;;;3.00;;
11076;SDS011;5591;42.626;23.380;2022-10-17T11:57:43;4.37;;;2.97;;
11076;SDS011;5591;42.626;23.380;2022-10-17T12:00:24;4.70;;;3.37;;
11076;SDS011;5591;42.626;23.380;2022-10-17T12:03:03;7.00;;;3.97;;
11076;SDS011;5591;42.626;23.380;2022-10-17T12:05:49;5.87;;;3.40;;
11076;SDS011;5591;42.626;23.380;2022-10-17T12:08:22;5.43;;;3.33;;
11076;SDS011;5591;42.626;23.380;2022-10-17T12:10:56;3.63;;;3.10;;
11076;SDS011;5591;42.626;23.380;2022-10-17T12:16:37;5.00;;;2.80;;
11076;SDS011;5591;42.626;23.380;2022-10-17T12:19:28;3.60;;;2.73;;
11076;SDS011;5591;42.626;23.380;2022-10-17T12:21:57;6.00;;;3.40;;
11076;SDS011;5591;42.626;23.380;2022-10-17T12:24:32;5.53;;;3.17;;
11076;SDS011;5591;42.626;23.380;2022-10-17T12:29:59;4.97;;;3.37;;
11076;SDS011;5591;42.626;23.380;2022-10-17T12:32:27;8.07;;;3.17;;
11076;SDS011;5591;42.626;23.380;2022-10-17T12:34:54;3.30;;;3.00;;
11076;SDS011;5591;42.626;23.380;2022-10-17T12:40:48;4.63;;;3.27;;
11076;SDS011;5591;42.626;23.380;2022-10-17T12:43:33;3.40;;;3.07;;
11076;SDS011;5591;42.626;23.380;2022-10-17T12:49:21;4.93;;;4.10;;
11076;SDS011;5591;42.626;23.380;2022-10-17T12:57:42;5.03;;;3.75;;
11076;SDS011;5591;42.626;23.380;2022-10-17T13:00:19;4.93;;;2.90;;
11076;SDS011;5591;42.626;23.380;2022-10-17T13:02:51;5.18;;;4.13;;
11076;SDS011;5591;42.626;23.380;2022-10-17T13:05:22;6.13;;;5.13;;
11076;SDS011;5591;42.626;23.380;2022-10-17T13:07:53;4.65;;;3.80;;
11076;SDS011;5591;42.626;23.380;2022-10-17T13:10:22;5.27;;;3.50;;
11076;SDS011;5591;42.626;23.380;2022-10-17T13:13:02;2.80;;;2.60;;
11076;SDS011;5591;42.626;23.380;2022-10-17T13:15:31;4.68;;;3.13;;
11076;SDS011;5591;42.626;23.380;2022-10-17T13:18:01;4.67;;;3.47;;
11076;SDS011;5591;42.626;23.380;2022-10-17T13:20:28;3.60;;;2.73;;
11076;SDS011;5591;42.626;23.380;2022-10-17T13:22:56;4.13;;;2.90;;
11076;SDS011;5591;42.626;23.380;2022-10-17T13:25:24;3.77;;;2.70;;
11076;SDS011;5591;42.626;23.380;2022-10-17T13:28:02;5.10;;;3.30;;
11076;SDS011;5591;42.626;23.380;2022-10-17T13:30:32;5.20;;;3.10;;
11076;SDS011;5591;42.626;23.380;2022-10-17T13:33:02;4.10;;;2.90;;
11076;SDS011;5591;42.626;23.380;2022-10-17T13:35:41;4.63;;;2.87;;
11076;SDS011;5591;42.626;23.380;2022-10-17T13:38:09;4.73;;;2.83;;
11076;SDS011;5591;42.626;23.380;2022-10-17T13:40:39;4.70;;;2.80;;
11076;SDS011;5591;42.626;23.380;2022-10-17T13:45:43;2.97;;;2.20;;
11076;SDS011;5591;42.626;23.380;2022-10-17T13:48:16;4.22;;;2.67;;
11076;SDS011;5591;42.626;23.380;2022-10-17T13:50:46;4.05;;;2.30;;
11076;SDS011;5591;42.626;23.380;2022-10-17T13:53:17;3.65;;;2.20;;
11076;SDS011;5591;42.626;23.380;2022-10-17T13:55:50;4.70;;;2.30;;
11076;SDS011;5591;42.626;23.380;2022-10-17T13:58:21;6.70;;;2.90;;
11076;SDS011;5591;42.626;23.380;2022-10-17T14:00:49;2.93;;;2.40;;
11076;SDS011;5591;42.626;23.380;2022-10-17T14:03:18;5.40;;;4.20;;
11076;SDS011;5591;42.626;23.380;2022-10-17T14:05:59;6.47;;;4.13;;
11076;SDS011;5591;42.626;23.380;2022-10-17T14:08:29;5.40;;;4.00;;
11076;SDS011;5591;42.626;23.380;2022-10-17T14:10:57;2.43;;;2.23;;
11076;SDS011;5591;42.626;23.380;2022-10-17T14:13:25;7.53;;;4.00;;
11076;SDS011;5591;42.626;23.380;2022-10-17T14:15:55;4.70;;;2.40;;
11076;SDS011;5591;42.626;23.380;2022-10-17T14:18:27;2.83;;;2.10;;
11076;SDS011;5591;42.626;23.380;2022-10-17T14:20:55;3.77;;;3.47;;
11076;SDS011;5591;42.626;23.380;2022-10-17T14:23:29;5.13;;;2.40;;
11076;SDS011;5591;42.626;23.380;2022-10-17T14:26:07;4.53;;;2.97;;
11076;SDS011;5591;42.626;23.380;2022-10-17T14:28:36;10.67;;;4.17;;
11076;SDS011;5591;42.626;23.380;2022-10-17T14:31:08;6.53;;;3.40;;
11076;SDS011;5591;42.626;23.380;2022-10-17T14:33:43;3.67;;;3.00;;
11076;SDS011;5591;42.626;23.380;2022-10-17T14:36:11;3.50;;;2.83;;
11076;SDS011;5591;42.626;23.380;2022-10-17T14:38:42;5.70;;;4.00;;
11076;SDS011;5591;42.626;23.380;2022-10-17T14:41:13;3.87;;;2.97;;
11076;SDS011;5591;42.626;23.380;2022-10-17T14:43:43;5.07;;;3.20;;
11076;SDS011;5591;42.626;23.380;2022-10-17T14:46:12;7.47;;;4.03;;
11076;SDS011;5591;42.626;23.380;2022-10-17T14:48:40;7.77;;;3.70;;
11076;SDS011;5591;42.626;23.380;2022-10-17T14:51:10;7.60;;;3.50;;
11076;SDS011;5591;42.626;23.380;2022-10-17T14:53:38;5.57;;;3.43;;
11076;SDS011;5591;42.626;23.380;2022-10-17T14:56:19;14.13;;;7.57;;
11076;SDS011;5591;42.626;23.380;2022-10-17T14:58:48;5.57;;;3.70;;
11076;SDS011;5591;42.626;23.380;2022-10-17T15:01:16;5.27;;;3.57;;
11076;SDS011;5591;42.626;23.380;2022-10-17T15:03:43;8.60;;;3.80;;
11076;SDS011;5591;42.626;23.380;2022-10-17T15:06:16;8.40;;;5.20;;
11076;SDS011;5591;42.626;23.380;2022-10-17T15:08:45;8.37;;;3.57;;
11076;SDS011;5591;42.626;23.380;2022-10-17T15:11:12;11.50;;;6.20;;
11076;SDS011;5591;42.626;23.380;2022-10-17T15:13:39;9.93;;;6.20;;
11076;SDS011;5591;42.626;23.380;2022-10-17T15:16:09;7.37;;;4.93;;
11076;SDS011;5591;42.626;23.380;2022-10-17T15:18:41;9.20;;;4.23;;
11076;SDS011;5591;42.626;23.380;2022-10-17T15:21:10;9.03;;;4.50;;
11076;SDS011;5591;42.626;23.380;2022-10-17T15:23:40;6.03;;;3.70;;
11076;SDS011;5591;42.626;23.380;2022-10-17T15:26:14;12.20;;;4.83;;
11076;SDS011;5591;42.626;23.380;2022-10-17T15:28:43;10.40;;;4.00;;
11076;SDS011;5591;42.626;23.380;2022-10-17T15:31:11;33.03;;;4.53;;
11076;SDS011;5591;42.626;23.380;2022-10-17T15:33:39;7.37;;;4.43;;
11076;SDS011;5591;42.626;23.380;2022-10-17T15:36:16;7.87;;;4.20;;
11076;SDS011;5591;42.626;23.380;2022-10-17T15:38:46;18.80;;;12.37;;
11076;SDS011;5591;42.626;23.380;2022-10-17T15:41:14;11.03;;;7.07;;
11076;SDS011;5591;42.626;23.380;2022-10-17T15:43:40;7.80;;;4.63;;
11076;SDS011;5591;42.626;23.380;2022-10-17T15:46:09;5.07;;;4.00;;
11076;SDS011;5591;42.626;23.380;2022-10-17T15:48:38;11.47;;;6.93;;
11076;SDS011;5591;42.626;23.380;2022-10-17T15:51:06;11.00;;;5.83;;
11076;SDS011;5591;42.626;23.380;2022-10-17T15:53:33;16.10;;;8.80;;
11076;SDS011;5591;42.626;23.380;2022-10-17T15:56:01;7.10;;;5.30;;
11076;SDS011;5591;42.626;23.380;2022-10-17T15:58:32;8.43;;;4.33;;
11076;SDS011;5591;42.626;23.380;2022-10-17T16:01:01;11.93;;;5.70;;
11076;SDS011;5591;42.626;23.380;2022-10-17T16:03:29;13.00;;;5.20;;
11076;SDS011;5591;42.626;23.380;2022-10-17T16:05:56;12.77;;;7.33;;
11076;SDS011;5591;42.626;23.380;2022-10-17T16:08:23;12.37;;;8.00;;
11076;SDS011;5591;42.626;23.380;2022-10-17T16:10:50;8.90;;;4.60;;
11076;SDS011;5591;42.626;23.380;2022-10-17T16:13:19;7.83;;;5.03;;
11076;SDS011;5591;42.626;23.380;2022-10-17T16:15:48;9.57;;;7.57;;
11076;SDS011;5591;42.626;23.380;2022-10-17T16:18:15;11.67;;;5.20;;
11076;SDS011;5591;42.626;23.380;2022-10-17T16:20:41;10.57;;;5.90;;
11076;SDS011;5591;42.626;23.380;2022-10-17T16:23:09;10.47;;;5.83;;
11076;SDS011;5591;42.626;23.380;2022-10-17T16:25:37;13.50;;;8.40;;
11076;SDS011;5591;42.626;23.380;2022-10-17T16:28:04;12.90;;;6.20;;
11076;SDS011;5591;42.626;23.380;2022-10-17T16:30:36;12.80;;;6.60;;
11076;SDS011;5591;42.626;23.380;2022-10-17T16:33:08;13.67;;;6.90;;
11076;SDS011;5591;42.626;23.380;2022-10-17T16:35:36;10.57;;;6.40;;
11076;SDS011;5591;42.626;23.380;2022-10-17T16:38:04;12.53;;;6.83;;
11076;SDS011;5591;42.626;23.380;2022-10-17T16:40:31;11.23;;;6.70;;
11076;SDS011;5591;42.626;23.380;2022-10-17T16:42:57;11.53;;;6.80;;
11076;SDS011;5591;42.626;23.380;2022-10-17T16:45:24;12.67;;;6.97;;
11076;SDS011;5591;42.626;23.380;2022-10-17T16:47:53;24.03;;;10.70;;
11076;SDS011;5591;42.626;23.380;2022-10-17T16:50:20;10.73;;;7.67;;
11076;SDS011;5591;42.626;23.380;2022-10-17T16:52:48;10.03;;;7.27;;
11076;SDS011;5591;42.626;23.380;2022-10-17T16:55:15;15.30;;;9.17;;
11076;SDS011;5591;42.626;23.380;2022-10-17T16:57:43;14.10;;;8.87;;
11076;SDS011;5591;42.626;23.380;2022-10-17T17:00:13;13.50;;;10.10;;
11076;SDS011;5591;42.626;23.380;2022-10-17T17:02:40;13.10;;;8.90;;
11076;SDS011;5591;42.626;23.380;2022-10-17T17:05:09;12.40;;;8.60;;
11076;SDS011;5591;42.626;23.380;2022-10-17T17:07:36;14.13;;;8.40;;
11076;SDS011;5591;42.626;23.380;2022-10-17T17:10:03;12.87;;;8.70;;
11076;SDS011;5591;42.626;23.380;2022-10-17T17:12:31;13.77;;;8.90;;
11076;SDS011;5591;42.626;23.380;2022-10-17T17:14:58;15.60;;;8.77;;
11076;SDS011;5591;42.626;23.380;2022-10-17T17:17:25;13.77;;;8.17;;
11076;SDS011;5591;42.626;23.380;2022-10-17T17:19:52;11.60;;;8.30;;
11076;SDS011;5591;42.626;23.380;2022-10-17T17:22:21;14.03;;;9.37;;
11076;SDS011;5591;42.626;23.380;2022-10-17T17:24:48;13.80;;;9.40;;
11076;SDS011;5591;42.626;23.380;2022-10-17T17:27:14;15.37;;;9.33;;
11076;SDS011;5591;42.626;23.380;2022-10-17T17:29:41;13.87;;;9.00;;
11076;SDS011;5591;42.626;23.380;2022-10-17T17:32:08;13.13;;;9.10;;
11076;SDS011;5591;42.626;23.380;2022-10-17T17:34:35;13.23;;;9.43;;
11076;SDS011;5591;42.626;23.380;2022-10-17T17:37:02;13.83;;;9.77;;
11076;SDS011;5591;42.626;23.380;2022-10-17T17:39:31;13.33;;;10.27;;
11076;SDS011;5591;42.626;23.380;2022-10-17T17:41:58;14.93;;;9.93;;
11076;SDS011;5591;42.626;23.380;2022-10-17T17:44:24;13.60;;;8.93;;
11076;SDS011;5591;42.626;23.380;2022-10-17T17:46:51;13.40;;;8.90;;
11076;SDS011;5591;42.626;23.380;2022-10-17T17:49:18;13.57;;;8.77;;
11076;SDS011;5591;42.626;23.380;2022-10-17T17:51:45;13.37;;;8.60;;
11076;SDS011;5591;42.626;23.380;2022-10-17T17:54:11;13.63;;;8.67;;